Time;durP1;ratioP1;P1;durP2;ratioP2;P2;SDS_P1;SDS_P2;PMS_P1;PMS_P2;Temp;Humidity;BMP_temperature;BMP_pressure;BME280_temperature;BME280_humidity;BME280_pressure;Samples;Min_cycle;Max_cycle;Signal;HPM_P1;HPM_P2
2022/05/06 00:00:12;;;;;;;19.13;8.20;;;9.10;99.90;;;;;;5014104;28;19948;-70
2022/05/06 00:02:38;;;;;;;16.08;7.38;;;9.10;99.90;;;;;;5014238;28;20572;-70
2022/05/06 00:05:05;;;;;;;16.83;7.68;;;9.00;99.90;;;;;;5013796;28;20029;-70
2022/05/06 00:07:31;;;;;;;19.90;8.70;;;8.90;99.90;;;;;;5024677;28;20033;-70
2022/05/06 00:09:56;;;;;;;22.63;9.63;;;9.00;99.90;;;;;;5033496;28;20040;-70
2022/05/06 00:12:22;;;;;;;21.30;9.90;;;9.00;99.90;;;;;;4999227;28;20035;-70
2022/05/06 00:14:48;;;;;;;25.92;10.50;;;9.00;99.90;;;;;;5033262;28;20026;-70
2022/05/06 00:17:14;;;;;;;20.35;9.80;;;9.10;99.90;;;;;;5033302;28;20026;-70
2022/05/06 00:19:42;;;;;;;26.58;10.27;;;9.10;99.90;;;;;;5031789;28;20433;-70
2022/05/06 00:22:09;;;;;;;26.38;9.90;;;9.10;99.90;;;;;;5015423;28;20042;-70
2022/05/06 00:24:34;;;;;;;27.88;9.85;;;9.20;99.90;;;;;;5033086;28;20144;-70
2022/05/06 00:27:00;;;;;;;29.13;10.55;;;9.30;99.90;;;;;;5032783;28;20128;-71
2022/05/06 00:29:26;;;;;;;23.00;10.23;;;9.20;99.90;;;;;;5032997;28;20089;-70
2022/05/06 00:31:52;;;;;;;23.88;9.98;;;9.30;99.90;;;;;;5017393;28;20030;-70
2022/05/06 00:34:18;;;;;;;20.52;9.48;;;9.30;99.90;;;;;;5013315;28;20034;-70
2022/05/06 00:36:44;;;;;;;25.67;9.75;;;9.30;99.90;;;;;;5013292;28;20034;-71
2022/05/06 00:39:10;;;;;;;21.92;10.27;;;9.30;99.90;;;;;;5013537;28;20474;-70
2022/05/06 00:41:35;;;;;;;25.60;10.75;;;9.30;99.90;;;;;;5013396;28;20066;-70
2022/05/06 00:44:04;;;;;;;35.47;11.70;;;9.20;99.90;;;;;;5009168;28;20393;-65
2022/05/06 00:46:31;;;;;;;25.95;11.45;;;9.20;99.90;;;;;;5033128;28;20501;-65
2022/05/06 00:48:57;;;;;;;27.70;10.77;;;9.20;99.90;;;;;;5032768;28;20021;-65
2022/05/06 00:51:24;;;;;;;30.27;11.15;;;9.30;99.90;;;;;;5032932;28;20258;-65
2022/05/06 00:53:52;;;;;;;28.60;13.10;;;9.40;99.90;;;;;;5032803;28;20025;-64
2022/05/06 00:56:18;;;;;;;29.08;11.15;;;9.40;99.90;;;;;;5018114;28;20064;-71
2022/05/06 00:58:45;;;;;;;26.83;11.52;;;9.50;99.90;;;;;;5013093;28;20029;-71
2022/05/06 01:01:11;;;;;;;27.85;10.65;;;9.60;99.90;;;;;;5013020;28;20516;-71
2022/05/06 01:03:37;;;;;;;25.63;11.18;;;9.60;99.90;;;;;;5012731;28;20494;-70
2022/05/06 01:06:13;;;;;;;23.73;10.55;;;9.50;99.90;;;;;;5012729;28;20045;-64
2022/05/06 01:08:40;;;;;;;24.38;11.48;;;9.50;99.90;;;;;;5027607;28;20096;-64
2022/05/06 01:11:07;;;;;;;23.45;10.38;;;9.50;99.90;;;;;;5032450;28;20029;-65
2022/05/06 01:13:39;;;;;;;23.70;10.52;;;9.50;99.90;;;;;;5033065;28;20044;-65
2022/05/06 01:16:05;;;;;;;27.85;10.70;;;9.50;99.90;;;;;;5032439;28;20061;-65
2022/05/06 01:18:31;;;;;;;21.20;10.18;;;9.60;99.90;;;;;;5019454;28;20082;-65
2022/05/06 01:20:59;;;;;;;20.42;9.20;;;9.60;99.90;;;;;;5012915;28;20037;-65
2022/05/06 01:23:24;;;;;;;;;;;9.50;99.90;;;;;;5013178;28;20025;-64
2022/05/06 01:25:51;;;;;;;28.10;10.65;;;9.50;99.90;;;;;;5016773;28;19921;-65
2022/05/06 01:28:18;;;;;;;27.30;11.27;;;9.40;99.90;;;;;;5032522;28;20037;-65
2022/05/06 01:30:47;;;;;;;27.33;11.38;;;9.40;99.90;;;;;;5032220;28;20036;-65
2022/05/06 01:33:18;;;;;;;22.85;10.73;;;9.50;99.90;;;;;;5032253;28;20072;-65
2022/05/06 01:35:52;;;;;;;25.50;11.07;;;9.40;99.90;;;;;;5030248;28;20033;-65
2022/05/06 01:38:51;;;;;;;29.58;12.45;;;9.40;99.90;;;;;;5034352;28;20104;-65
2022/05/06 01:41:22;;;;;;;25.95;10.98;;;9.50;99.90;;;;;;5035948;28;20416;-65
2022/05/06 01:43:52;;;;;;;23.95;9.77;;;9.50;99.90;;;;;;5036336;28;20108;-65
2022/05/06 01:46:21;;;;;;;23.95;9.32;;;9.50;99.90;;;;;;5024230;28;20100;-66
2022/05/06 01:48:48;;;;;;;26.15;11.25;;;9.60;99.90;;;;;;5016467;28;20029;-65
2022/05/06 01:51:15;;;;;;;26.48;11.32;;;9.70;99.90;;;;;;5016329;28;20037;-65
2022/05/06 01:53:44;;;;;;;24.50;10.73;;;9.70;99.90;;;;;;5019790;28;20095;-65
2022/05/06 01:56:11;;;;;;;25.45;10.20;;;9.80;99.90;;;;;;5035759;28;20120;-65
2022/05/06 01:58:37;;;;;;;26.65;11.23;;;9.70;99.90;;;;;;5020771;28;20034;-64
2022/05/06 02:01:03;;;;;;;26.23;11.05;;;9.70;99.90;;;;;;5016324;28;20513;-64
2022/05/06 02:06:13;;;;;;;24.13;10.18;;;9.60;99.90;;;;;;5016292;28;20045;-65
2022/05/06 02:08:39;;;;;;;18.85;9.88;;;9.60;99.90;;;;;;5016050;28;20474;-71
2022/05/06 02:11:06;;;;;;;20.95;9.57;;;9.50;99.90;;;;;;5034154;28;20045;-71
2022/05/06 02:13:33;;;;;;;21.35;10.13;;;9.50;99.90;;;;;;5017683;28;20132;-71
2022/05/06 02:15:59;;;;;;;16.95;7.82;;;9.40;99.90;;;;;;5021081;28;20497;-71
2022/05/06 02:18:26;;;;;;;20.88;8.90;;;9.30;99.90;;;;;;4998391;28;20041;-71
2022/05/06 02:20:59;;;;;;;20.15;8.52;;;9.20;99.90;;;;;;5016456;28;20049;-65
2022/05/06 02:23:26;;;;;;;18.35;7.70;;;9.10;99.90;;;;;;5016328;28;20045;-65
2022/05/06 02:25:52;;;;;;;16.30;8.10;;;9.00;99.90;;;;;;4995131;28;20050;-65
2022/05/06 02:28:18;;;;;;;19.38;9.23;;;9.00;99.90;;;;;;5016093;28;20132;-65
2022/05/06 02:33:31;;;;;;;15.52;8.27;;;9.10;99.90;;;;;;5015743;28;20564;-71
2022/05/06 02:35:59;;;;;;;20.42;8.32;;;9.10;99.90;;;;;;5015696;28;20053;-65
2022/05/06 02:38:25;;;;;;;;;;;9.20;99.90;;;;;;4997316;28;20526;-65
2022/05/06 02:40:51;;;;;;;20.70;9.77;;;9.10;99.90;;;;;;4995826;28;19952;-65
2022/05/06 02:43:17;;;;;;;22.33;9.00;;;9.20;99.90;;;;;;4995966;28;20490;-64
2022/05/06 02:45:43;;;;;;;17.45;8.65;;;9.20;99.90;;;;;;4995713;28;20077;-64
2022/05/06 02:48:09;;;;;;;19.33;9.20;;;9.20;99.90;;;;;;4995561;28;20454;-65
2022/05/06 02:50:36;;;;;;;21.85;10.07;;;9.20;99.90;;;;;;5015235;28;20117;-71
2022/05/06 02:53:02;;;;;;;22.83;10.50;;;9.20;99.90;;;;;;5014968;28;20068;-71
2022/05/06 02:55:28;;;;;;;29.52;11.38;;;9.10;99.90;;;;;;5015187;28;20030;-71
2022/05/06 02:57:54;;;;;;;25.75;12.43;;;9.10;99.90;;;;;;5015259;28;20441;-71
2022/05/06 03:00:20;;;;;;;26.88;11.27;;;9.10;99.90;;;;;;5012388;28;20439;-71
2022/05/06 03:02:46;;;;;;;30.67;12.70;;;9.20;99.90;;;;;;4995738;28;20038;-71
2022/05/06 03:05:12;;;;;;;26.75;11.70;;;9.20;99.90;;;;;;4995395;28;20046;-71
2022/05/06 03:07:39;;;;;;;31.00;12.02;;;9.20;99.90;;;;;;4996630;28;20113;-71
2022/05/06 03:10:05;;;;;;;25.30;9.57;;;9.20;99.90;;;;;;4995309;28;20045;-71
2022/05/06 03:12:31;;;;;;;23.33;11.07;;;9.20;99.90;;;;;;5000123;28;20044;-71
2022/05/06 03:15:03;;;;;;;21.50;10.50;;;9.20;99.90;;;;;;5015448;28;20033;-71
2022/05/06 03:17:30;;;;;;;19.80;9.68;;;9.10;99.90;;;;;;5015091;28;20076;-71
2022/05/06 03:19:56;;;;;;;20.77;8.70;;;9.00;99.90;;;;;;5015181;28;20555;-71
2022/05/06 03:22:22;;;;;;;19.35;9.10;;;8.90;99.90;;;;;;5015149;28;20100;-71
2022/05/06 03:24:48;;;;;;;21.65;10.20;;;8.80;99.90;;;;;;5011713;28;20057;-71
2022/05/06 03:29:58;;;;;;;21.50;9.95;;;8.60;99.90;;;;;;5014818;28;20076;-65
2022/05/06 03:32:24;;;;;;;24.92;9.38;;;8.60;99.90;;;;;;5014890;28;20026;-65
2022/05/06 03:34:50;;;;;;;24.60;10.82;;;8.60;99.90;;;;;;5014801;28;20037;-65
2022/05/06 03:37:16;;;;;;;21.98;10.23;;;8.50;99.90;;;;;;5033938;28;20036;-64
2022/05/06 03:39:42;;;;;;;20.77;8.73;;;8.60;99.90;;;;;;5034204;28;20029;-65
2022/05/06 03:42:08;;;;;;;28.02;10.18;;;8.50;99.90;;;;;;5034078;28;20363;-71
2022/05/06 03:44:34;;;;;;;22.67;9.35;;;8.50;99.90;;;;;;5033924;28;20441;-71
2022/05/06 03:47:00;;;;;;;22.60;9.93;;;8.40;99.90;;;;;;5016084;28;20072;-71
2022/05/06 03:49:25;;;;;;;26.90;10.95;;;8.50;99.90;;;;;;5016311;28;20071;-71
2022/05/06 03:51:51;;;;;;;22.48;9.32;;;8.40;99.90;;;;;;5033997;28;20063;-71
2022/05/06 03:54:16;;;;;;;23.00;9.32;;;8.40;99.90;;;;;;5033885;28;20545;-71
2022/05/06 03:56:42;;;;;;;21.27;9.05;;;8.30;99.90;;;;;;5016363;28;20502;-65
2022/05/06 03:59:09;;;;;;;20.08;9.35;;;8.30;99.90;;;;;;5033843;28;20048;-65
2022/05/06 04:01:35;;;;;;;18.10;8.63;;;8.20;99.90;;;;;;5015862;28;20025;-65
2022/05/06 04:04:02;;;;;;;19.58;9.27;;;8.10;99.90;;;;;;5033618;28;20092;-71
2022/05/06 04:06:28;;;;;;;19.88;8.43;;;8.10;99.90;;;;;;5032243;28;20037;-71
2022/05/06 04:08:54;;;;;;;14.15;7.50;;;8.10;99.90;;;;;;5033265;28;20080;-71
2022/05/06 04:11:20;;;;;;;24.35;9.43;;;8.00;99.90;;;;;;5033637;28;20041;-71
2022/05/06 04:13:47;;;;;;;22.83;7.90;;;7.90;99.90;;;;;;5033690;28;20024;-71
2022/05/06 04:16:14;;;;;;;23.85;8.75;;;8.00;99.90;;;;;;5033703;28;20025;-71
2022/05/06 04:18:40;;;;;;;23.80;9.10;;;8.00;99.90;;;;;;5033581;28;20040;-71
2022/05/06 04:23:50;;;;;;;16.02;6.97;;;7.80;99.90;;;;;;5019023;28;20092;-71
2022/05/06 04:26:15;;;;;;;18.05;10.07;;;7.80;99.90;;;;;;5033126;28;20128;-72
2022/05/06 04:28:43;;;;;;;12.27;6.57;;;7.80;99.90;;;;;;5016197;28;20049;-71
2022/05/06 04:31:09;;;;;;;18.33;8.57;;;7.80;99.90;;;;;;5033150;28;20046;-72
2022/05/06 04:33:38;;;;;;;20.40;10.55;;;7.70;99.90;;;;;;5033036;28;20029;-72
2022/05/06 04:36:04;;;;;;;23.70;10.15;;;7.70;99.90;;;;;;5015281;28;20033;-71
2022/05/06 04:38:30;;;;;;;20.17;9.43;;;7.70;99.90;;;;;;5015559;28;20068;-72
2022/05/06 04:41:00;;;;;;;27.08;10.80;;;7.60;99.90;;;;;;5033115;28;20112;-72
2022/05/06 04:43:26;;;;;;;27.25;11.55;;;7.60;99.90;;;;;;5032813;28;20085;-72
2022/05/06 04:45:53;;;;;;;24.38;11.98;;;7.70;99.90;;;;;;5032791;28;20037;-72
2022/05/06 04:48:20;;;;;;;25.47;10.93;;;7.60;99.90;;;;;;5032910;28;20103;-72
2022/05/06 04:50:47;;;;;;;22.33;10.02;;;7.70;99.90;;;;;;5032884;28;20095;-72
2022/05/06 04:53:13;;;;;;;27.37;11.10;;;7.80;99.90;;;;;;5032894;28;20025;-72
2022/05/06 04:55:41;;;;;;;28.77;12.15;;;7.80;99.90;;;;;;5032547;28;20269;-72
2022/05/06 04:58:09;;;;;;;24.58;10.85;;;7.90;99.90;;;;;;5032695;28;20037;-72
2022/05/06 05:00:35;;;;;;;25.02;11.25;;;7.90;99.90;;;;;;5032791;28;20083;-72
2022/05/06 05:03:01;;;;;;;20.67;10.77;;;7.80;99.90;;;;;;5032722;28;20116;-72
2022/05/06 05:05:27;;;;;;;17.23;9.02;;;7.70;99.90;;;;;;5032872;28;20064;-72
2022/05/06 05:07:54;;;;;;;19.90;9.10;;;7.70;99.90;;;;;;5032506;28;20033;-72
2022/05/06 05:10:21;;;;;;;19.80;9.90;;;7.70;99.90;;;;;;5032974;28;20042;-72
2022/05/06 05:12:47;;;;;;;18.98;9.63;;;7.80;99.90;;;;;;5032891;28;20033;-72
2022/05/06 05:15:15;;;;;;;17.42;9.60;;;7.80;99.90;;;;;;5032610;28;20030;-72
2022/05/06 05:17:41;;;;;;;18.35;9.05;;;7.80;99.90;;;;;;5015175;28;20076;-72
2022/05/06 05:20:08;;;;;;;21.05;9.65;;;7.80;99.90;;;;;;5032599;28;20045;-72
2022/05/06 05:22:35;;;;;;;30.10;11.77;;;7.90;99.90;;;;;;5014790;28;20037;-71
2022/05/06 05:25:02;;;;;;;24.80;11.18;;;8.00;99.90;;;;;;5032595;28;20449;-64
2022/05/06 05:27:27;;;;;;;28.85;12.25;;;8.10;99.90;;;;;;5032996;28;20075;-65
2022/05/06 05:29:53;;;;;;;27.25;12.32;;;8.30;99.90;;;;;;5016024;28;20104;-65
2022/05/06 05:32:19;;;;;;;24.63;12.02;;;8.40;99.90;;;;;;5015176;28;20398;-65
2022/05/06 05:34:46;;;;;;;21.95;10.57;;;8.50;99.90;;;;;;5015292;28;20037;-65
2022/05/06 05:37:12;;;;;;;23.40;12.60;;;8.50;99.90;;;;;;5033083;28;20030;-65
2022/05/06 05:39:37;;;;;;;19.55;9.73;;;8.50;99.90;;;;;;5015281;28;20092;-65
2022/05/06 05:42:04;;;;;;;22.65;11.35;;;8.60;99.90;;;;;;5015098;28;20401;-64
2022/05/06 05:49:59;;;;;;;21.73;11.15;;;9.00;99.90;;;;;;5032657;28;20037;-65
2022/05/06 05:52:24;;;;;;;14.52;7.63;;;9.20;99.90;;;;;;5032622;28;20041;-65
2022/05/06 05:54:50;;;;;;;13.50;8.25;;;9.20;99.90;;;;;;5031908;28;20068;-65
2022/05/06 05:57:16;;;;;;;12.20;6.68;;;9.20;99.90;;;;;;5031819;28;20099;-66
2022/05/06 05:59:42;;;;;;;13.45;6.85;;;9.10;99.90;;;;;;5032359;28;20103;-65
2022/05/06 06:02:11;;;;;;;12.60;6.95;;;9.00;99.90;;;;;;5032075;28;20453;-65
2022/05/06 06:04:38;;;;;;;12.90;6.45;;;9.10;99.90;;;;;;5032076;28;20116;-65
2022/05/06 06:07:05;;;;;;;11.98;7.22;;;9.10;99.90;;;;;;5014054;28;20099;-65
2022/05/06 06:09:32;;;;;;;12.18;7.25;;;9.10;99.90;;;;;;5031924;28;20056;-64
2022/05/06 06:12:08;;;;;;;18.55;8.48;;;9.10;99.90;;;;;;5029981;28;20044;-65
2022/05/06 06:14:34;;;;;;;16.80;9.13;;;9.10;99.90;;;;;;5012651;28;20037;-61
2022/05/06 06:17:00;;;;;;;16.55;8.80;;;9.20;99.90;;;;;;5011902;28;20030;-61
2022/05/06 06:19:25;;;;;;;17.65;8.27;;;9.20;99.90;;;;;;4993648;28;20115;-61
2022/05/06 06:21:51;;;;;;;15.68;8.55;;;9.30;99.90;;;;;;5011829;28;20049;-61
2022/05/06 06:24:19;;;;;;;17.27;8.52;;;9.40;99.90;;;;;;5013942;28;20497;-61
2022/05/06 06:26:45;;;;;;;;;;;9.50;99.90;;;;;;5016364;28;20030;-61
2022/05/06 06:29:11;;;;;;;20.13;9.27;;;9.60;99.90;;;;;;5015672;28;19906;-62
2022/05/06 06:31:38;;;;;;;17.83;9.13;;;9.60;99.90;;;;;;5015972;28;20026;-61
2022/05/06 06:34:04;;;;;;;22.95;10.65;;;9.70;99.90;;;;;;4998079;28;20038;-61
2022/05/06 06:36:30;;;;;;;18.35;9.55;;;9.80;99.90;;;;;;4998083;28;20037;-61
2022/05/06 06:38:56;;;;;;;19.27;9.60;;;9.90;99.90;;;;;;5014159;28;20030;-61
2022/05/06 06:41:21;;;;;;;18.23;8.95;;;10.00;99.90;;;;;;5014203;28;20045;-61
2022/05/06 06:43:50;;;;;;;19.15;9.05;;;10.20;99.90;;;;;;5014287;28;20077;-63
2022/05/06 06:46:16;;;;;;;16.10;8.48;;;10.30;99.90;;;;;;4998024;28;20048;-62
2022/05/06 06:48:43;;;;;;;17.88;9.32;;;10.40;99.90;;;;;;4997781;28;20096;-63
2022/05/06 06:51:09;;;;;;;16.27;8.52;;;10.40;99.90;;;;;;5015170;28;20037;-62
2022/05/06 06:53:35;;;;;;;17.38;8.48;;;10.40;99.90;;;;;;5015299;28;20037;-63
2022/05/06 06:56:01;;;;;;;13.77;7.47;;;10.50;99.90;;;;;;5015244;28;20041;-63
2022/05/06 06:58:27;;;;;;;14.90;8.00;;;10.70;99.90;;;;;;5015233;28;20038;-63
2022/05/06 07:00:53;;;;;;;15.40;7.93;;;10.80;99.90;;;;;;5015126;28;20042;-62
2022/05/06 07:03:20;;;;;;;18.70;8.65;;;10.90;99.90;;;;;;5015052;28;20046;-62
2022/05/06 07:13:59;;;;;;;16.77;8.32;;;11.60;99.90;;;;;;5015006;28;20057;-61
2022/05/06 07:16:26;;;;;;;12.35;7.72;;;11.70;99.90;;;;;;5014880;28;20034;-61
2022/05/06 07:18:52;;;;;;;14.02;8.45;;;11.80;99.90;;;;;;5014582;28;20052;-60
2022/05/06 07:21:18;;;;;;;15.05;8.68;;;11.90;99.90;;;;;;5014716;28;20109;-60
2022/05/06 07:23:43;;;;;;;15.90;8.13;;;11.90;99.90;;;;;;5014496;28;20069;-60
2022/05/06 07:26:09;;;;;;;15.68;8.50;;;12.20;99.90;;;;;;5014353;28;20081;-60
2022/05/06 07:28:35;;;;;;;15.45;8.75;;;12.30;99.90;;;;;;5014617;28;20443;-63
2022/05/06 07:31:01;;;;;;;16.70;8.80;;;12.40;99.90;;;;;;5014437;28;20040;-63
2022/05/06 07:33:27;;;;;;;15.43;8.30;;;12.60;99.90;;;;;;5014490;28;20041;-63
2022/05/06 07:35:52;;;;;;;25.05;9.38;;;12.80;99.90;;;;;;5013434;28;20455;-63
2022/05/06 07:38:18;;;;;;;16.77;8.55;;;13.10;99.90;;;;;;5014322;28;20112;-63
2022/05/06 07:40:44;;;;;;;16.30;8.90;;;13.30;99.90;;;;;;5014238;28;20080;-63
2022/05/06 07:43:09;;;;;;;14.45;8.13;;;13.40;99.90;;;;;;5014149;28;20030;-63
2022/05/06 07:45:35;;;;;;;19.17;9.63;;;13.60;99.90;;;;;;5014401;28;20041;-63
2022/05/06 07:48:03;;;;;;;15.25;8.88;;;13.70;99.90;;;;;;4996614;28;20401;-63
2022/05/06 07:50:31;;;;;;;16.48;7.65;;;13.90;99.90;;;;;;5014160;28;20045;-63
2022/05/06 07:52:58;;;;;;;17.23;8.27;;;14.10;99.90;;;;;;5014201;28;20494;-63
2022/05/06 07:55:23;;;;;;;16.70;7.72;;;14.30;99.90;;;;;;5014247;28;20549;-63
2022/05/06 07:57:50;;;;;;;14.63;7.30;;;14.40;99.90;;;;;;5014007;28;20030;-63
2022/05/06 08:00:19;;;;;;;10.52;6.38;;;14.60;99.90;;;;;;5013952;28;20041;-63
2022/05/06 08:05:32;;;;;;;12.95;7.38;;;14.90;99.90;;;;;;5014214;28;20114;-63
2022/05/06 08:07:58;;;;;;;16.33;7.70;;;15.00;99.90;;;;;;5013755;28;20129;-63
2022/05/06 08:10:24;;;;;;;11.75;6.63;;;15.30;99.90;;;;;;5013727;28;20128;-62
2022/05/06 08:12:50;;;;;;;13.63;6.93;;;15.40;99.90;;;;;;5013818;28;20037;-62
2022/05/06 08:15:16;;;;;;;11.80;6.45;;;15.50;99.90;;;;;;5013509;28;20380;-63
2022/05/06 08:17:42;;;;;;;12.02;7.32;;;15.60;99.90;;;;;;5013627;28;20026;-63
2022/05/06 08:20:09;;;;;;;16.50;7.47;;;15.90;99.90;;;;;;5012348;28;20038;-62
2022/05/06 08:22:36;;;;;;;13.73;7.93;;;16.10;99.90;;;;;;5020221;28;20069;-62
2022/05/06 08:25:05;;;;;;;12.38;7.10;;;16.10;99.90;;;;;;5032993;28;20104;-62
2022/05/06 08:27:43;;;;;;;14.77;7.53;;;16.20;99.90;;;;;;5033932;28;20041;-63
2022/05/06 08:30:12;;;;;;;18.27;7.43;;;16.30;99.90;;;;;;5015701;28;20044;-63
2022/05/06 08:32:38;;;;;;;14.13;8.73;;;16.40;99.90;;;;;;5033036;28;20041;-62
2022/05/06 08:35:04;;;;;;;13.70;7.97;;;16.70;99.90;;;;;;5032980;28;20033;-62
2022/05/06 08:37:47;;;;;;;13.48;7.43;;;17.00;99.90;;;;;;5033290;28;20033;-62
2022/05/06 08:40:17;;;;;;;13.43;7.45;;;17.20;99.90;;;;;;5032781;28;20072;-62
2022/05/06 08:42:44;;;;;;;14.45;8.80;;;17.50;99.90;;;;;;5033183;28;20188;-63
2022/05/06 08:50:51;;;;;;;11.77;6.05;;;18.00;99.90;;;;;;5032783;28;20084;-60
2022/05/06 08:53:17;;;;;;;9.27;4.88;;;18.20;96.30;;;;;;5032755;28;20037;-61
2022/05/06 08:55:43;;;;;;;12.88;5.80;;;18.20;97.50;;;;;;5032641;28;20033;-60
2022/05/06 08:58:09;;;;;;;12.73;5.95;;;18.10;96.50;;;;;;5032915;28;20379;-60
2022/05/06 09:00:35;;;;;;;10.50;5.30;;;18.10;99.40;;;;;;5032658;28;20038;-60
2022/05/06 09:03:00;;;;;;;10.90;6.15;;;18.30;97.20;;;;;;5031392;28;20525;-60
2022/05/06 09:05:28;;;;;;;11.15;6.03;;;18.30;97.40;;;;;;5032461;28;20057;-60
2022/05/06 09:08:04;;;;;;;9.15;5.07;;;18.50;96.70;;;;;;5032794;28;20413;-60
2022/05/06 09:10:30;;;;;;;11.27;5.50;;;18.80;96.70;;;;;;5032605;28;20111;-60
2022/05/06 09:13:02;;;;;;;10.40;5.55;;;19.00;96.30;;;;;;5032534;28;20025;-61
2022/05/06 09:18:22;;;;;;;10.35;5.03;;;18.80;95.90;;;;;;5032616;28;20056;-60
2022/05/06 09:20:49;;;;;;;11.38;5.57;;;18.90;94.70;;;;;;5032546;28;20497;-60
2022/05/06 09:23:27;;;;;;;10.52;5.53;;;18.70;95.30;;;;;;5032242;28;20038;-60
2022/05/06 09:25:55;;;;;;;9.50;5.53;;;18.70;96.00;;;;;;5032259;28;20129;-61
2022/05/06 09:28:28;;;;;;;9.60;4.63;;;18.80;95.50;;;;;;5032245;28;20038;-60
2022/05/06 09:31:08;;;;;;;12.40;5.53;;;18.80;94.90;;;;;;5032137;28;20030;-60
2022/05/06 09:33:42;;;;;;;11.00;5.15;;;18.70;95.20;;;;;;5032349;28;20033;-61
2022/05/06 09:36:29;;;;;;;13.60;6.15;;;18.80;96.50;;;;;;5032225;28;20025;-66
2022/05/06 09:39:10;;;;;;;12.68;6.07;;;18.80;95.70;;;;;;5032141;28;20515;-62
2022/05/06 09:41:39;;;;;;;14.63;6.03;;;18.70;96.40;;;;;;5032358;28;20037;-64
2022/05/06 09:44:08;;;;;;;14.98;6.60;;;18.60;95.50;;;;;;5032163;28;20049;-64
2022/05/06 09:46:34;;;;;;;12.07;6.07;;;18.60;96.10;;;;;;5032166;28;20030;-63
2022/05/06 09:49:02;;;;;;;13.43;6.05;;;18.70;96.20;;;;;;5031986;28;20556;-63
2022/05/06 09:51:30;;;;;;;11.93;5.80;;;18.80;95.90;;;;;;5031970;28;20038;-62
2022/05/06 09:53:56;;;;;;;11.05;6.00;;;18.80;96.10;;;;;;5032136;28;20034;-63
2022/05/06 09:56:22;;;;;;;10.13;5.70;;;18.90;96.00;;;;;;5032044;28;20030;-62
2022/05/06 09:58:52;;;;;;;10.05;5.40;;;19.20;95.50;;;;;;5033329;28;20117;-61
2022/05/06 10:01:18;;;;;;;9.57;5.00;;;19.30;95.00;;;;;;5035897;28;20064;-64
2022/05/06 10:03:44;;;;;;;10.82;5.57;;;19.50;94.50;;;;;;5035905;28;20072;-66
2022/05/06 10:06:10;;;;;;;9.73;5.30;;;19.60;93.90;;;;;;5035751;28;20046;-63
2022/05/06 10:08:46;;;;;;;8.35;4.90;;;19.70;95.10;;;;;;5018176;28;20061;-60
2022/05/06 10:11:14;;;;;;;12.20;5.85;;;19.60;93.60;;;;;;5035627;28;20039;-61
2022/05/06 10:13:43;;;;;;;11.13;5.57;;;19.30;93.80;;;;;;5035681;28;20405;-61
2022/05/06 10:16:10;;;;;;;9.77;5.10;;;19.20;93.80;;;;;;5035479;28;20389;-61
2022/05/06 10:18:41;;;;;;;11.48;6.18;;;19.30;94.50;;;;;;5035587;28;20035;-62
2022/05/06 10:21:08;;;;;;;11.82;6.05;;;19.40;94.00;;;;;;5017684;28;20128;-61
2022/05/06 10:23:48;;;;;;;9.93;4.88;;;19.60;95.70;;;;;;5035586;28;20030;-61
2022/05/06 10:26:35;;;;;;;9.52;5.30;;;19.90;92.80;;;;;;5035200;28;20053;-61
2022/05/06 10:34:33;;;;;;;6.18;2.67;;;20.10;92.00;;;;;;5035704;28;20045;-61
2022/05/06 10:37:02;;;;;;;5.65;3.60;;;20.30;90.50;;;;;;5035132;28;20037;-61
2022/05/06 10:39:36;;;;;;;11.93;4.20;;;20.30;88.60;;;;;;5035212;28;20024;-61
2022/05/06 10:42:10;;;;;;;8.63;4.10;;;20.10;90.10;;;;;;5035508;28;20509;-61
2022/05/06 10:44:41;;;;;;;9.07;4.43;;;20.30;90.80;;;;;;5035158;28;20029;-61
2022/05/06 10:47:12;;;;;;;6.53;3.67;;;20.50;88.60;;;;;;5035099;28;20116;-61
2022/05/06 10:49:38;;;;;;;12.20;4.75;;;20.60;88.20;;;;;;5034846;28;20549;-64
2022/05/06 10:52:18;;;;;;;7.03;3.65;;;20.60;87.50;;;;;;5017129;28;20076;-61
2022/05/06 10:54:48;;;;;;;8.02;4.00;;;20.40;88.10;;;;;;5035049;28;20057;-62
2022/05/06 10:57:21;;;;;;;8.10;4.28;;;20.20;87.30;;;;;;5034900;28;20025;-61
2022/05/06 10:59:56;;;;;;;6.53;4.10;;;20.00;89.80;;;;;;5034809;28;20521;-63
2022/05/06 11:02:23;;;;;;;6.15;4.18;;;19.80;91.00;;;;;;5034974;28;20029;-61
2022/05/06 11:05:00;;;;;;;9.80;4.47;;;20.00;91.80;;;;;;5034735;28;20482;-61
2022/05/06 11:07:27;;;;;;;;;;;20.20;90.80;;;;;;5035089;28;20029;-62
2022/05/06 11:09:53;;;;;;;8.55;4.97;;;20.70;91.30;;;;;;5034402;28;19913;-61
2022/05/06 11:12:40;;;;;;;11.38;4.60;;;20.90;90.10;;;;;;5016846;28;20096;-59
2022/05/06 11:15:07;;;;;;;;;;;21.00;87.90;;;;;;5028080;28;20038;-60
2022/05/06 11:17:33;;;;;;;9.48;3.60;;;20.40;89.30;;;;;;5034514;28;19916;-61
2022/05/06 11:20:21;;;;;;;5.68;3.03;;;20.40;88.50;;;;;;5034476;28;20045;-64
2022/05/06 11:22:51;;;;;;;5.85;3.05;;;20.20;84.60;;;;;;5034444;28;20041;-62
2022/05/06 11:25:17;;;;;;;4.75;2.75;;;19.70;85.80;;;;;;5034428;28;20038;-63
2022/05/06 11:27:42;;;;;;;4.60;2.13;;;19.40;85.70;;;;;;5016718;28;20104;-66
2022/05/06 11:30:16;;;;;;;6.40;3.10;;;18.90;84.20;;;;;;5033984;28;20080;-63
2022/05/06 11:32:52;;;;;;;5.82;3.17;;;18.70;87.50;;;;;;5034189;28;20084;-61
2022/05/06 11:35:26;;;;;;;6.65;2.50;;;19.10;88.00;;;;;;5033923;28;20029;-66
2022/05/06 11:37:52;;;;;;;3.50;2.30;;;19.40;85.90;;;;;;5034316;28;20112;-66
2022/05/06 11:42:58;;;;;;;3.00;1.60;;;18.90;83.80;;;;;;5033808;28;20057;-62
2022/05/06 11:48:13;;;;;;;4.75;2.00;;;19.10;82.30;;;;;;5034098;28;20249;-61
2022/05/06 11:50:41;;;;;;;5.60;3.08;;;19.20;81.00;;;;;;5033941;28;20470;-62
2022/05/06 11:53:09;;;;;;;6.38;3.08;;;19.30;81.40;;;;;;5033823;28;20041;-61
2022/05/06 11:55:40;;;;;;;6.50;2.55;;;18.80;82.60;;;;;;5033738;28;20041;-61
2022/05/06 11:58:07;;;;;;;4.18;2.42;;;18.50;85.50;;;;;;5033702;28;20109;-62
2022/05/06 12:00:33;;;;;;;5.30;2.78;;;18.70;84.50;;;;;;5033368;28;20076;-60
2022/05/06 12:03:04;;;;;;;3.78;2.40;;;19.00;82.00;;;;;;5033509;28;20125;-60
2022/05/06 12:05:31;;;;;;;5.85;2.80;;;19.60;81.40;;;;;;5033532;28;20037;-61
2022/05/06 12:07:56;;;;;;;6.00;3.42;;;20.20;80.60;;;;;;5033569;28;20472;-61
2022/05/06 12:10:29;;;;;;;7.00;3.95;;;20.30;80.80;;;;;;5033411;28;20038;-61
2022/05/06 12:13:04;;;;;;;5.63;3.65;;;19.80;79.80;;;;;;5033301;28;20096;-61
2022/05/06 12:15:40;;;;;;;6.07;3.20;;;20.00;83.30;;;;;;5033551;28;20509;-61
2022/05/06 12:18:21;;;;;;;7.15;3.35;;;20.30;78.40;;;;;;5015881;28;20030;-61
2022/05/06 12:20:47;;;;;;;6.18;3.03;;;20.40;77.30;;;;;;5015892;28;20033;-61
2022/05/06 12:23:14;;;;;;;8.52;3.55;;;20.50;73.30;;;;;;5015094;28;20110;-60
2022/05/06 12:25:41;;;;;;;6.20;3.67;;;20.50;74.20;;;;;;5033337;28;20068;-61
2022/05/06 12:28:18;;;;;;;8.77;4.00;;;20.50;75.10;;;;;;5033103;28;20160;-64
2022/05/06 12:30:44;;;;;;;;;;;20.30;75.80;;;;;;5033413;28;20041;-61
2022/05/06 12:33:15;;;;;;;5.85;3.28;;;20.00;75.50;;;;;;5032965;28;19909;-62
2022/05/06 12:35:58;;;;;;;6.05;3.38;;;20.00;75.80;;;;;;5015487;28;20461;-63
2022/05/06 12:38:43;;;;;;;4.38;2.90;;;20.50;77.20;;;;;;5033160;28;20025;-66
2022/05/06 12:41:17;;;;;;;6.57;4.38;;;20.70;74.70;;;;;;5025498;28;20048;-62
2022/05/06 12:43:43;;;;;;;7.25;3.50;;;20.90;77.30;;;;;;5033356;28;20493;-62
2022/05/06 12:46:08;;;;;;;6.13;3.67;;;21.60;74.60;;;;;;5032792;28;20091;-62
2022/05/06 12:51:18;;;;;;;5.88;3.60;;;22.30;77.90;;;;;;5032846;28;20096;-62
2022/05/06 12:53:43;;;;;;;7.05;3.72;;;22.90;74.40;;;;;;5015370;28;20474;-63
2022/05/06 12:56:18;;;;;;;7.65;3.92;;;22.30;74.90;;;;;;5032914;28;20029;-63
2022/05/06 12:58:44;;;;;;;6.93;3.83;;;21.90;78.20;;;;;;5032741;28;20482;-63
2022/05/06 13:01:10;;;;;;;6.53;3.85;;;21.40;76.00;;;;;;5030856;28;20067;-62
2022/05/06 13:03:35;;;;;;;7.95;4.28;;;21.20;79.40;;;;;;5012656;28;20030;-63
2022/05/06 13:06:01;;;;;;;9.50;4.22;;;21.20;81.20;;;;;;5013000;28;20474;-63
2022/05/06 13:08:27;;;;;;;11.80;7.38;;;21.20;76.70;;;;;;5013194;28;20034;-65
2022/05/06 13:10:53;;;;;;;10.77;6.30;;;21.00;80.20;;;;;;5012588;28;20041;-65
2022/05/06 13:13:19;;;;;;;7.57;3.70;;;20.50;81.00;;;;;;5012623;28;20109;-65
2022/05/06 13:15:44;;;;;;;8.05;4.20;;;21.00;81.00;;;;;;5013076;28;20193;-65
2022/05/06 13:18:11;;;;;;;7.15;3.33;;;21.20;80.70;;;;;;5012852;28;20453;-68
2022/05/06 13:20:36;;;;;;;8.40;3.58;;;21.60;80.20;;;;;;5011075;28;20506;-65
2022/05/06 13:23:02;;;;;;;6.30;3.78;;;21.00;81.40;;;;;;5012785;28;20106;-71
2022/05/06 13:25:28;;;;;;;7.13;3.55;;;21.00;80.70;;;;;;5022480;28;20383;-63
2022/05/06 13:27:54;;;;;;;6.40;3.40;;;20.70;83.80;;;;;;5032354;28;20454;-64
2022/05/06 13:30:20;;;;;;;6.40;3.38;;;21.10;81.90;;;;;;5017502;28;20033;-66
2022/05/06 13:32:45;;;;;;;6.32;3.67;;;21.70;81.30;;;;;;5012680;28;20089;-64
2022/05/06 13:35:12;;;;;;;4.60;3.08;;;22.20;81.60;;;;;;5016187;28;20029;-66